createdAt,value
2018-03-31T00:01:03.518Z,6.60
2018-03-31T00:03:31.273Z,6.60
2018-03-31T00:05:58.311Z,6.70
2018-03-31T00:08:25.341Z,6.70
2018-03-31T00:10:52.337Z,6.60
2018-03-31T00:13:19.351Z,6.60
2018-03-31T00:15:46.395Z,6.50
2018-03-31T00:18:14.165Z,6.50
2018-03-31T00:20:41.154Z,6.50
2018-03-31T00:23:08.150Z,6.50
2018-03-31T00:25:35.134Z,6.40
2018-03-31T00:28:02.143Z,6.40
2018-03-31T00:30:29.117Z,6.40
2018-03-31T00:32:56.134Z,6.40
2018-03-31T00:35:23.154Z,6.40
2018-03-31T00:37:50.126Z,6.30
2018-03-31T00:40:17.134Z,6.40
2018-03-31T00:42:44.122Z,6.30
2018-03-31T00:45:11.122Z,6.30
2018-03-31T00:47:38.899Z,6.20
2018-03-31T00:50:06.667Z,6.20
2018-03-31T00:52:33.675Z,6.20
2018-03-31T00:55:00.649Z,6.20
2018-03-31T00:57:27.630Z,6.20
2018-03-31T00:59:54.637Z,6.20
2018-03-31T01:02:21.632Z,6.10
2018-03-31T01:04:48.641Z,6.10
2018-03-31T01:07:15.650Z,6.10
2018-03-31T01:09:43.403Z,6.10
2018-03-31T01:12:10.452Z,6.10
2018-03-31T01:14:37.423Z,6.00
2018-03-31T01:17:04.410Z,6.10
2018-03-31T01:19:31.406Z,5.90
2018-03-31T01:21:58.386Z,5.90
2018-03-31T01:24:25.394Z,5.80
2018-03-31T01:26:52.428Z,5.80
2018-03-31T01:29:19.482Z,5.90
2018-03-31T01:31:46.474Z,5.80
2018-03-31T01:34:13.498Z,5.80
2018-03-31T01:36:40.482Z,5.80
2018-03-31T01:39:08.290Z,5.80
2018-03-31T01:41:36.048Z,5.80
2018-03-31T01:44:03.060Z,5.80
2018-03-31T01:46:30.067Z,5.80
2018-03-31T01:48:57.049Z,5.70
2018-03-31T01:51:24.793Z,5.80
2018-03-31T01:53:51.802Z,5.70
2018-03-31T01:56:18.792Z,5.70
2018-03-31T01:58:45.809Z,5.70
2018-03-31T02:01:13.556Z,5.60
2018-03-31T02:03:40.573Z,5.50
2018-03-31T02:06:07.581Z,5.50
2018-03-31T02:08:34.603Z,5.50
2018-03-31T02:11:01.616Z,5.50
2018-03-31T02:13:29.368Z,5.50
2018-03-31T02:15:56.378Z,5.40
2018-03-31T02:18:23.359Z,5.40
2018-03-31T02:20:50.382Z,5.40
2018-03-31T02:23:17.411Z,5.40
2018-03-31T02:25:45.893Z,5.40
2018-03-31T02:28:12.916Z,5.40
2018-03-31T02:30:39.899Z,5.40
2018-03-31T02:33:06.898Z,5.30
2018-03-31T02:35:33.912Z,5.20
2018-03-31T02:38:00.961Z,5.10
2018-03-31T02:40:27.967Z,5.20
2018-03-31T02:42:54.982Z,5.10
2018-03-31T02:45:22.009Z,5.20
2018-03-31T02:47:49.783Z,5.00
2018-03-31T02:50:17.575Z,5.00
2018-03-31T02:52:44.557Z,5.00
2018-03-31T02:55:11.550Z,5.00
2018-03-31T02:57:38.573Z,5.00
2018-03-31T03:00:05.584Z,5.00
2018-03-31T03:02:32.569Z,4.90
2018-03-31T03:04:59.593Z,4.80
2018-03-31T03:07:26.594Z,4.80
2018-03-31T03:09:53.581Z,4.80
2018-03-31T03:12:20.637Z,4.70
2018-03-31T03:14:47.616Z,4.70
2018-03-31T03:17:14.636Z,4.80
2018-03-31T03:19:41.629Z,4.90
2018-03-31T03:22:08.639Z,4.70
2018-03-31T03:24:35.662Z,4.70
2018-03-31T03:27:02.642Z,4.80
2018-03-31T03:29:29.624Z,4.80
2018-03-31T03:31:56.623Z,4.70
2018-03-31T03:34:23.653Z,4.60
2018-03-31T03:36:50.635Z,4.50
2018-03-31T03:39:17.614Z,4.70
2018-03-31T03:41:44.624Z,4.70
2018-03-31T03:44:11.674Z,4.60
2018-03-31T03:46:39.426Z,4.50
2018-03-31T03:49:06.432Z,4.50
2018-03-31T03:51:33.455Z,4.50
2018-03-31T03:54:01.247Z,4.40
2018-03-31T03:56:29.017Z,4.40
2018-03-31T03:58:56.767Z,4.40
2018-03-31T04:01:23.783Z,4.40
2018-03-31T04:03:50.798Z,4.50
2018-03-31T04:06:17.870Z,4.50
2018-03-31T04:08:45.642Z,4.50
2018-03-31T04:11:13.375Z,4.40
2018-03-31T04:13:40.409Z,4.40
2018-03-31T04:16:07.438Z,4.30
2018-03-31T04:18:34.438Z,4.30
2018-03-31T04:21:01.426Z,4.10
2018-03-31T04:23:28.434Z,4.10
2018-03-31T04:25:55.426Z,4.00
2018-03-31T04:28:23.206Z,4.00
2018-03-31T04:30:50.666Z,4.00
2018-03-31T04:33:17.793Z,4.00
2018-03-31T04:35:46.063Z,4.10
2018-03-31T04:38:13.042Z,4.10
2018-03-31T04:40:40.811Z,4.30
2018-03-31T04:43:07.802Z,4.20
2018-03-31T04:45:34.834Z,4.10
2018-03-31T04:48:02.581Z,4.00
2018-03-31T04:50:29.582Z,4.00
2018-03-31T04:52:56.586Z,3.90
2018-03-31T04:55:25.369Z,3.80
2018-03-31T04:57:52.386Z,3.80
2018-03-31T05:00:19.408Z,3.60
2018-03-31T05:02:46.456Z,3.50
2018-03-31T05:05:13.442Z,3.40
2018-03-31T05:07:40.458Z,3.30
2018-03-31T05:10:07.450Z,3.40
2018-03-31T05:12:34.591Z,3.30
2018-03-31T05:15:01.638Z,3.40
2018-03-31T05:17:28.664Z,3.30
2018-03-31T05:19:56.504Z,3.30
2018-03-31T05:22:23.572Z,3.30
2018-03-31T05:24:50.595Z,3.30
2018-03-31T05:27:17.580Z,3.30
2018-03-31T05:29:44.558Z,3.20
2018-03-31T05:32:11.680Z,3.20
2018-03-31T05:34:38.717Z,3.30
2018-03-31T05:37:05.695Z,3.30
2018-03-31T05:39:32.674Z,3.30
2018-03-31T05:41:59.685Z,3.30
2018-03-31T05:44:26.778Z,3.40
2018-03-31T05:46:53.815Z,3.30
2018-03-31T05:49:20.818Z,3.20
2018-03-31T05:51:47.852Z,3.20
2018-03-31T05:54:14.863Z,3.30
2018-03-31T05:56:42.643Z,3.50
2018-03-31T05:59:10.439Z,3.50
2018-03-31T06:01:37.447Z,3.40
2018-03-31T06:04:04.422Z,3.50
2018-03-31T06:06:31.473Z,3.50
2018-03-31T06:08:58.509Z,3.60
2018-03-31T06:11:25.478Z,3.80
2018-03-31T06:13:52.494Z,3.90
2018-03-31T06:16:19.480Z,3.90
2018-03-31T06:18:46.522Z,3.90
2018-03-31T06:21:13.498Z,3.90
2018-03-31T06:23:40.508Z,3.90
2018-03-31T06:26:08.298Z,3.80
2018-03-31T06:28:35.281Z,3.80
2018-03-31T06:31:02.287Z,3.90
2018-03-31T06:33:29.266Z,4.00
2018-03-31T06:35:57.064Z,4.50
2018-03-31T06:38:24.106Z,4.40
2018-03-31T06:40:51.126Z,4.60
2018-03-31T06:43:18.173Z,4.90
2018-03-31T06:45:45.151Z,5.10
2018-03-31T06:48:12.154Z,5.20
2018-03-31T06:50:39.135Z,5.40
2018-03-31T06:53:06.154Z,5.40
2018-03-31T06:55:33.938Z,5.70
2018-03-31T06:58:01.683Z,5.90
2018-03-31T07:00:28.698Z,5.90
2018-03-31T07:02:56.592Z,6.10
2018-03-31T07:05:23.588Z,6.10
2018-03-31T07:07:51.394Z,6.40
2018-03-31T07:10:19.137Z,6.50
2018-03-31T07:12:46.144Z,6.60
2018-03-31T07:15:13.126Z,6.60
2018-03-31T07:17:40.225Z,6.70
2018-03-31T07:20:07.243Z,6.90
2018-03-31T07:22:34.225Z,7.00
2018-03-31T07:25:01.208Z,7.20
2018-03-31T07:27:28.242Z,7.40
2018-03-31T07:29:55.221Z,7.50
2018-03-31T07:32:22.243Z,7.60
2018-03-31T07:34:49.227Z,7.70
2018-03-31T07:37:16.242Z,7.80
2018-03-31T07:39:43.219Z,7.90
2018-03-31T07:42:10.221Z,8.10
2018-03-31T07:44:37.199Z,8.20
2018-03-31T07:47:04.976Z,8.40
2018-03-31T07:49:32.754Z,8.50
2018-03-31T07:52:00.500Z,8.60
2018-03-31T07:54:27.478Z,8.60
2018-03-31T07:56:55.289Z,8.70
2018-03-31T07:59:22.318Z,8.70
2018-03-31T08:01:50.061Z,9.10
2018-03-31T08:04:17.053Z,9.10
2018-03-31T08:06:44.830Z,9.20
2018-03-31T08:09:12.582Z,9.30
2018-03-31T08:11:39.584Z,9.30
2018-03-31T08:14:06.584Z,9.40
2018-03-31T08:16:33.565Z,9.50
2018-03-31T08:19:01.350Z,9.60
2018-03-31T08:21:28.330Z,9.60
2018-03-31T08:23:56.088Z,9.90
2018-03-31T08:26:23.902Z,10.00
2018-03-31T08:28:50.922Z,10.00
2018-03-31T08:31:17.898Z,10.10
2018-03-31T08:33:45.658Z,10.20
2018-03-31T08:36:13.442Z,10.30
2018-03-31T08:38:41.228Z,10.30
2018-03-31T08:41:09.018Z,10.40
2018-03-31T08:43:36.013Z,10.40
2018-03-31T08:46:02.999Z,10.40
2018-03-31T08:48:30.054Z,10.50
2018-03-31T08:50:57.062Z,10.60
2018-03-31T08:53:24.113Z,10.50
2018-03-31T08:55:51.906Z,10.70
2018-03-31T08:58:18.931Z,10.70
2018-03-31T09:00:46.682Z,11.00
2018-03-31T09:03:13.653Z,11.00
2018-03-31T09:05:40.691Z,11.10
2018-03-31T09:08:07.679Z,11.20
2018-03-31T09:10:34.686Z,11.20
2018-03-31T09:13:01.714Z,11.30
2018-03-31T09:15:29.475Z,11.40
2018-03-31T09:17:56.455Z,11.30
2018-03-31T09:20:23.471Z,11.50
2018-03-31T09:22:51.998Z,11.60
2018-03-31T09:25:19.746Z,11.70
2018-03-31T09:27:46.728Z,11.60
2018-03-31T09:30:14.503Z,11.90
2018-03-31T09:32:42.254Z,11.90
2018-03-31T09:35:09.275Z,11.90
2018-03-31T09:37:36.266Z,12.10
2018-03-31T09:40:03.260Z,12.00
2018-03-31T09:42:31.034Z,12.00
2018-03-31T09:44:58.782Z,12.00
2018-03-31T09:47:25.816Z,12.00
2018-03-31T09:49:52.790Z,12.00
2018-03-31T09:52:19.773Z,12.00
2018-03-31T09:54:46.786Z,12.10
2018-03-31T09:57:13.814Z,12.10
2018-03-31T09:59:41.564Z,12.10
2018-03-31T10:02:08.539Z,12.10
2018-03-31T10:04:36.297Z,12.20
2018-03-31T10:07:03.318Z,12.20
2018-03-31T10:09:30.298Z,12.30
2018-03-31T10:11:57.293Z,12.40
2018-03-31T10:14:25.179Z,12.50
2018-03-31T10:16:52.930Z,12.60
2018-03-31T10:19:20.090Z,12.60
2018-03-31T10:21:47.144Z,12.60
2018-03-31T10:24:14.183Z,12.70
2018-03-31T10:26:41.199Z,12.70
2018-03-31T10:29:08.956Z,12.80
2018-03-31T10:31:35.958Z,12.80
2018-03-31T10:34:02.993Z,12.90
2018-03-31T10:36:30.770Z,12.90
2018-03-31T10:38:57.769Z,12.90
2018-03-31T10:41:24.763Z,13.00
2018-03-31T10:43:51.930Z,13.20
2018-03-31T10:46:20.158Z,13.30
2018-03-31T10:48:47.200Z,13.40
2018-03-31T10:51:14.226Z,13.50
2018-03-31T10:53:41.218Z,13.50
2018-03-31T10:56:08.990Z,13.50
2018-03-31T10:58:36.782Z,13.60
2018-03-31T11:01:04.534Z,13.60
2018-03-31T11:03:31.520Z,13.60
2018-03-31T11:05:59.299Z,13.60
2018-03-31T11:08:27.058Z,13.80
2018-03-31T11:10:54.839Z,13.70
2018-03-31T11:13:22.601Z,13.60
2018-03-31T11:15:49.937Z,13.50
2018-03-31T11:18:17.100Z,13.60
2018-03-31T11:20:44.297Z,13.50
2018-03-31T11:23:11.291Z,13.30
2018-03-31T11:25:38.311Z,13.10
2018-03-31T11:28:05.286Z,13.00
2018-03-31T11:30:33.066Z,12.80
2018-03-31T11:33:00.815Z,12.70
2018-03-31T11:35:27.922Z,12.70
2018-03-31T11:37:54.904Z,12.60
2018-03-31T11:40:21.894Z,12.50
2018-03-31T11:42:48.917Z,12.40
2018-03-31T11:45:15.901Z,12.20
2018-03-31T11:47:42.936Z,12.20
2018-03-31T11:50:09.930Z,12.10
2018-03-31T11:52:36.923Z,12.10
2018-03-31T11:55:04.722Z,12.10
2018-03-31T11:57:31.801Z,12.00
2018-03-31T11:59:58.794Z,12.10
2018-03-31T12:02:25.818Z,12.10
2018-03-31T12:04:52.826Z,12.10
2018-03-31T12:07:20.574Z,12.20
2018-03-31T12:09:47.594Z,12.10
2018-03-31T12:12:14.578Z,12.00
2018-03-31T12:14:41.565Z,11.90
2018-03-31T12:17:08.573Z,11.90
2018-03-31T12:19:35.571Z,11.90
2018-03-31T12:22:02.585Z,11.80
2018-03-31T12:24:29.570Z,11.80
2018-03-31T12:26:56.587Z,11.70
2018-03-31T12:29:24.349Z,11.70
2018-03-31T12:31:51.347Z,11.70
2018-03-31T12:34:18.354Z,11.70
2018-03-31T12:36:45.340Z,11.70
2018-03-31T12:39:13.124Z,11.60
2018-03-31T12:41:40.899Z,11.70
2018-03-31T12:44:08.680Z,11.70
2018-03-31T12:46:36.440Z,11.70
2018-03-31T12:49:04.261Z,11.80
2018-03-31T12:51:31.244Z,11.80
2018-03-31T12:53:58.319Z,11.90
2018-03-31T12:56:25.332Z,12.00
2018-03-31T12:58:52.407Z,11.90
2018-03-31T13:01:19.429Z,11.80
2018-03-31T13:03:47.176Z,11.80
2018-03-31T13:06:14.159Z,11.80
2018-03-31T13:08:42.045Z,11.80
2018-03-31T13:11:09.815Z,11.70
2018-03-31T13:13:37.578Z,11.70
2018-03-31T13:16:04.699Z,11.70
2018-03-31T13:18:31.719Z,11.70
2018-03-31T13:20:59.506Z,11.70
2018-03-31T13:23:26.502Z,11.70
2018-03-31T13:25:53.519Z,11.70
2018-03-31T13:28:21.642Z,11.80
2018-03-31T13:30:48.625Z,11.80
2018-03-31T13:33:15.646Z,11.80
2018-03-31T13:35:42.627Z,11.80
2018-03-31T13:38:09.616Z,11.90
2018-03-31T13:40:36.629Z,11.90
2018-03-31T13:43:03.637Z,12.00
2018-03-31T13:45:30.619Z,12.10
2018-03-31T13:47:58.393Z,11.90
2018-03-31T13:50:26.139Z,11.90
2018-03-31T13:52:53.152Z,11.90
2018-03-31T13:55:20.132Z,11.80
2018-03-31T13:57:47.157Z,11.80
2018-03-31T14:00:14.137Z,11.70
2018-03-31T14:02:41.225Z,11.80
2018-03-31T14:05:08.194Z,11.70
2018-03-31T14:07:35.202Z,11.60
2018-03-31T14:10:02.247Z,11.60
2018-03-31T14:12:29.244Z,11.50
2018-03-31T14:14:56.240Z,11.50
2018-03-31T14:17:23.222Z,11.40
2018-03-31T14:19:50.328Z,11.50
2018-03-31T14:22:17.315Z,11.50
2018-03-31T14:24:44.305Z,11.50
2018-03-31T14:27:11.612Z,11.40
2018-03-31T14:29:38.603Z,11.30
2018-03-31T14:32:05.609Z,11.30
2018-03-31T14:34:32.600Z,11.30
2018-03-31T14:36:59.628Z,11.20
2018-03-31T14:39:26.613Z,11.20
2018-03-31T14:41:53.640Z,11.20
2018-03-31T14:44:20.646Z,11.10
2018-03-31T14:46:47.650Z,11.10
2018-03-31T14:49:14.638Z,11.10
2018-03-31T14:51:41.650Z,11.20
2018-03-31T14:54:09.406Z,11.30
2018-03-31T14:56:36.427Z,11.30
2018-03-31T14:59:03.407Z,11.20
2018-03-31T15:01:30.426Z,11.20
2018-03-31T15:03:57.442Z,11.30
2018-03-31T15:06:24.427Z,11.20
2018-03-31T15:08:52.186Z,11.10
2018-03-31T15:11:19.962Z,11.20
2018-03-31T15:13:46.947Z,11.20
2018-03-31T15:16:14.733Z,11.40
2018-03-31T15:18:41.834Z,11.40
2018-03-31T15:21:08.820Z,11.50
2018-03-31T15:23:35.809Z,11.80
2018-03-31T15:26:02.819Z,12.00
2018-03-31T15:28:29.822Z,12.30
2018-03-31T15:30:57.604Z,12.20
2018-03-31T15:33:24.587Z,12.20
2018-03-31T15:35:51.579Z,12.10
2018-03-31T15:38:18.601Z,11.90
2018-03-31T15:40:45.632Z,11.90
2018-03-31T15:43:12.618Z,11.60
2018-03-31T15:45:39.607Z,11.50
2018-03-31T15:48:06.614Z,11.50
2018-03-31T15:50:33.593Z,11.50
2018-03-31T15:53:00.634Z,11.40
2018-03-31T15:55:27.630Z,11.30
2018-03-31T15:57:54.656Z,11.20
2018-03-31T16:00:21.682Z,11.20
2018-03-31T16:02:48.678Z,11.30
2018-03-31T16:05:15.663Z,11.40
2018-03-31T16:07:42.674Z,11.40
2018-03-31T16:10:10.443Z,11.30
2018-03-31T16:12:38.276Z,11.30
2018-03-31T16:15:05.301Z,11.20
2018-03-31T16:17:32.282Z,11.10
2018-03-31T16:19:59.278Z,11.10
2018-03-31T16:22:26.290Z,11.10
2018-03-31T16:24:53.270Z,11.00
2018-03-31T16:27:20.254Z,11.00
2018-03-31T16:29:47.292Z,10.90
2018-03-31T16:32:14.270Z,10.90
2018-03-31T16:34:41.322Z,11.00
2018-03-31T16:37:08.297Z,11.10
2018-03-31T16:39:36.090Z,10.80
2018-03-31T16:42:03.130Z,10.80
2018-03-31T16:44:30.139Z,10.60
2018-03-31T16:46:57.164Z,10.60
2018-03-31T16:49:24.135Z,10.60
2018-03-31T16:51:51.145Z,10.60
2018-03-31T16:54:18.127Z,10.50
2018-03-31T16:56:45.138Z,10.50
2018-03-31T16:59:12.122Z,10.40
2018-03-31T17:01:39.134Z,10.50
2018-03-31T17:04:06.138Z,10.40
2018-03-31T17:06:33.143Z,10.30
2018-03-31T17:09:00.910Z,10.30
2018-03-31T17:14:19.322Z,10.30
2018-03-31T17:16:46.368Z,10.30
2018-03-31T17:19:13.366Z,10.20
2018-03-31T17:21:40.705Z,10.00
2018-03-31T17:24:07.711Z,9.80
2018-03-31T17:26:34.716Z,9.50
2018-03-31T17:29:02.513Z,9.10
2018-03-31T17:31:29.547Z,9.10
2018-03-31T17:33:57.335Z,8.80
2018-03-31T17:36:25.084Z,8.60
2018-03-31T17:38:52.095Z,8.60
2018-03-31T17:41:19.116Z,8.40
2018-03-31T17:43:46.864Z,8.20
2018-03-31T17:46:13.883Z,8.20
2018-03-31T17:48:40.865Z,7.90
2018-03-31T17:51:07.874Z,7.90
2018-03-31T17:53:35.640Z,8.10
2018-03-31T17:56:02.642Z,8.10
2018-03-31T17:58:29.695Z,8.10
2018-03-31T18:00:56.730Z,8.10
2018-03-31T18:03:23.677Z,8.00
2018-03-31T18:05:51.448Z,8.00
2018-03-31T18:08:18.459Z,8.00
2018-03-31T18:10:45.572Z,8.10
2018-03-31T18:13:12.632Z,8.30
2018-03-31T18:15:40.460Z,8.20
2018-03-31T18:18:08.202Z,8.20
2018-03-31T18:20:35.214Z,8.10
2018-03-31T18:23:02.246Z,8.20
2018-03-31T18:25:29.238Z,8.10
2018-03-31T18:27:56.218Z,8.10
2018-03-31T18:30:23.233Z,8.00
2018-03-31T18:32:50.217Z,8.10
2018-03-31T18:35:18.010Z,7.90
2018-03-31T18:37:45.092Z,7.90
2018-03-31T18:40:12.848Z,7.70
2018-03-31T18:42:40.059Z,7.70
2018-03-31T18:45:07.264Z,7.50
2018-03-31T18:47:34.304Z,7.40
2018-03-31T18:50:01.293Z,7.40
2018-03-31T18:52:28.279Z,7.40
2018-03-31T18:54:55.286Z,7.40
2018-03-31T18:57:22.303Z,7.40
2018-03-31T18:59:49.300Z,7.40
2018-03-31T19:02:16.303Z,7.50
2018-03-31T19:04:44.049Z,7.40
2018-03-31T19:07:11.062Z,7.40
2018-03-31T19:09:38.052Z,7.50
2018-03-31T19:12:05.062Z,7.50
2018-03-31T19:14:32.806Z,7.40
2018-03-31T19:17:05.444Z,7.40
2018-03-31T19:19:32.469Z,7.40
2018-03-31T19:21:59.471Z,7.50
2018-03-31T19:24:26.475Z,7.50
2018-03-31T19:26:53.465Z,7.50
2018-03-31T19:29:21.242Z,7.50
2018-03-31T19:31:48.987Z,7.50
2018-03-31T19:34:16.128Z,7.50
2018-03-31T19:36:43.065Z,7.50
2018-03-31T19:39:10.118Z,7.60
2018-03-31T19:41:37.115Z,7.60
2018-03-31T19:44:04.152Z,7.50
2018-03-31T19:46:31.158Z,7.40
2018-03-31T19:48:58.156Z,7.40
2018-03-31T19:51:25.156Z,7.50
2018-03-31T19:53:52.168Z,7.50
2018-03-31T19:56:19.176Z,7.40
2018-03-31T19:58:46.185Z,7.40
2018-03-31T20:01:13.182Z,7.30
2018-03-31T20:03:40.181Z,7.30
2018-03-31T20:06:07.928Z,7.20
2018-03-31T20:08:34.944Z,7.20
2018-03-31T20:11:01.929Z,7.20
2018-03-31T20:13:28.919Z,7.10
2018-03-31T20:15:55.945Z,7.20
2018-03-31T20:18:22.934Z,7.30
2018-03-31T20:20:49.958Z,7.30
2018-03-31T20:23:16.937Z,7.30
2018-03-31T20:25:43.959Z,7.30
2018-03-31T20:28:10.993Z,7.30
2018-03-31T20:30:37.946Z,7.30
2018-03-31T20:33:04.970Z,7.20
2018-03-31T20:35:31.952Z,7.10
2018-03-31T20:37:58.958Z,7.00
2018-03-31T20:40:25.936Z,6.90
2018-03-31T20:42:52.942Z,6.80
2018-03-31T20:45:20.692Z,6.70
2018-03-31T20:47:49.200Z,6.70
2018-03-31T20:50:16.246Z,6.70
2018-03-31T20:52:43.250Z,6.70
2018-03-31T20:55:10.234Z,6.60
2018-03-31T20:57:37.233Z,6.60
2018-03-31T21:00:04.277Z,6.60
2018-03-31T21:02:31.299Z,6.40
2018-03-31T21:04:58.327Z,6.40
2018-03-31T21:07:26.098Z,6.50
2018-03-31T21:09:53.881Z,6.40
2018-03-31T21:12:21.622Z,6.30
2018-03-31T21:14:48.658Z,6.30
2018-03-31T21:17:15.704Z,6.30
2018-03-31T21:19:42.681Z,6.30
2018-03-31T21:22:09.699Z,6.30
2018-03-31T21:24:37.438Z,6.20
2018-03-31T21:27:04.442Z,6.20
2018-03-31T21:29:31.432Z,6.30
2018-03-31T21:31:58.434Z,6.30
2018-03-31T21:34:26.211Z,6.30
2018-03-31T21:36:53.983Z,6.30
2018-03-31T21:39:21.244Z,6.30
2018-03-31T21:41:48.251Z,6.30
2018-03-31T21:44:15.262Z,6.30
2018-03-31T21:46:42.326Z,6.20
2018-03-31T21:49:09.334Z,6.20
2018-03-31T21:51:36.316Z,6.10
2018-03-31T21:54:03.318Z,6.10
2018-03-31T21:56:31.121Z,6.00
2018-03-31T21:58:58.870Z,6.00
2018-03-31T22:01:26.634Z,5.90
2018-03-31T22:03:53.627Z,5.90
2018-03-31T22:06:20.764Z,5.90
2018-03-31T22:08:48.530Z,5.90
2018-03-31T22:11:15.518Z,5.80
2018-03-31T22:13:48.130Z,5.80
2018-03-31T22:16:15.111Z,5.80
2018-03-31T22:18:42.100Z,5.70
2018-03-31T22:21:09.114Z,5.60
2018-03-31T22:23:36.093Z,5.60
2018-03-31T22:26:03.100Z,5.60
2018-03-31T22:28:30.876Z,5.60
2018-03-31T22:30:58.624Z,5.60
2018-03-31T22:33:25.596Z,5.60
2018-03-31T22:35:53.378Z,5.70
2018-03-31T22:38:21.125Z,5.70
2018-03-31T22:40:48.137Z,5.70
2018-03-31T22:43:15.163Z,5.70
2018-03-31T22:45:42.146Z,5.70
2018-03-31T22:48:09.130Z,5.70
2018-03-31T22:50:36.151Z,5.70
2018-03-31T22:53:03.914Z,5.70
2018-03-31T22:55:31.714Z,5.70
2018-03-31T22:57:58.698Z,5.70
2018-03-31T23:00:25.717Z,5.90
2018-03-31T23:02:53.464Z,5.90
2018-03-31T23:05:20.472Z,5.80
2018-03-31T23:07:47.454Z,5.80
2018-03-31T23:10:14.470Z,5.80
2018-03-31T23:12:42.389Z,5.80
2018-03-31T23:15:09.367Z,5.80
2018-03-31T23:17:36.383Z,5.80
2018-03-31T23:20:03.402Z,5.80
2018-03-31T23:22:30.389Z,5.80
2018-03-31T23:24:58.170Z,5.90
2018-03-31T23:27:25.963Z,5.90
2018-03-31T23:29:53.052Z,5.90
2018-03-31T23:32:20.040Z,5.90
2018-03-31T23:34:47.050Z,5.90
2018-03-31T23:37:14.072Z,5.90
2018-03-31T23:39:41.046Z,5.90
2018-03-31T23:42:08.822Z,5.80
2018-03-31T23:44:35.799Z,5.80
2018-03-31T23:47:02.811Z,5.80
2018-03-31T23:49:29.810Z,5.90
2018-03-31T23:51:57.597Z,6.00
2018-03-31T23:54:24.631Z,6.00
2018-03-31T23:56:52.403Z,6.10
2018-03-31T23:59:19.414Z,6.10
